Airfield :
LOGIN :

Register | Disclaimer

   EN    FR    IT 

 










Legend :    VFR   Marginal VFR   IFR   Intensive IFR   Very Intensive IFR
Visi :
Ceiling :
>= 8 km
>= 3000ft
5 to 8 km
1000 to 3000 ft
1500m to 5 km
500 to 1000 ft
800 to 1500m
200 to 500 ft
< 800m
< 200 ft
Symbols :   Thunderstorms  Fog  Heavy snow  Heavy precipitations  Wind > 20 kt
SIGMETs :     Misc.  Thunderstorms  Icing  Turbulence  Mountain Waves  Volcanic Ashes






- Airport Elevation : 353 ft
- IATA code : LIN


LIML - Milano Linate

CURRENT METAR :
  • 092220Z AUTO VRB02KT 9999 NCD 24/19 Q1015

EXPIRED METARs :
  • 092150Z AUTO VRB02KT 9999 NCD 26/19 Q1015
  • 092120Z AUTO VRB02KT 9999 NCD 24/19 Q1015
  • 092050Z 03003KT 360V060 CAVOK 27/19 Q1014 NOSIG
  • 092020Z VRB01KT CAVOK 27/18 Q1014 NOSIG
  • 091950Z VRB01KT CAVOK 29/18 Q1014 NOSIG

TAF TAF LIML
Valid from the 09 at 18:00 until the 10 at 18:00 UTC


091700Z 0918/1018 VRB05KT CAVOK



MET'MAP, your aeronautical weather chart ! - Copyright ORBIFLY December 2007 - Disclaimer

ORBIFLY MET'MAP TEAM :

Programming & Development : Alexandra Zaïnal
Concept & original design : Baudouin d'Aumeries
Assistance for programming : Marc-Olivier Méhu
Technical & hardware support : Manuel Goepfert

Contact : metmap@orbifly.com




SOURCES & CREDITS :

   NOAA